DLH351 EDDF-EDDP
Flight info
| Callsign | DLH351 |
|---|---|
| Flight time | 0h 47m |
| Altitude | 23000 |
| Route | SULUS7S/18 SULUS Z12 LASGA/N0398F220 T953 VOCIM/N0392F210 T954 GOXLI GOXLI1R |
| Aircraft | B733/M-SDE2E3FHIRW/S |
Departure
| Time | 2026-05-06 23:48 |
|---|---|
| Airport | Frankfurt Main Airport (EDDF) |
Arrival
| Time | 2026-05-07 00:35 |
|---|---|
| Airport | Leipzig/Halle Airport (EDDP) |
| Time | Latitude | Longitude | Altitude | Speed | Heading |
|---|---|---|---|---|---|
| 2026-05-06 22:56 | 50.04380 | 8.56969 | 365 ft | 0 kts | 160° |
| 2026-05-06 23:39 | 50.04379 | 8.56969 | 365 ft | 0 kts | 160° |
| 2026-05-06 23:39 | 50.04352 | 8.56985 | 365 ft | 6 kts | 159° |
| 2026-05-06 23:39 | 50.04319 | 8.57002 | 364 ft | 6 kts | 171° |
| 2026-05-06 23:40 | 50.04286 | 8.56946 | 363 ft | 9 kts | 252° |
| 2026-05-06 23:40 | 50.04253 | 8.56802 | 361 ft | 16 kts | 249° |
| 2026-05-06 23:40 | 50.04206 | 8.56612 | 356 ft | 20 kts | 250° |
| 2026-05-06 23:40 | 50.04164 | 8.56432 | 355 ft | 16 kts | 250° |
| 2026-05-06 23:41 | 50.04122 | 8.56259 | 353 ft | 17 kts | 249° |
| 2026-05-06 23:41 | 50.04076 | 8.56068 | 349 ft | 20 kts | 249° |
| 2026-05-06 23:41 | 50.04028 | 8.55864 | 346 ft | 22 kts | 249° |
| 2026-05-06 23:41 | 50.03978 | 8.55654 | 347 ft | 13 kts | 250° |
| 2026-05-06 23:42 | 50.03936 | 8.55478 | 347 ft | 19 kts | 250° |
| 2026-05-06 23:42 | 50.03887 | 8.55277 | 346 ft | 20 kts | 248° |
| 2026-05-06 23:42 | 50.03838 | 8.55068 | 343 ft | 21 kts | 250° |
| 2026-05-06 23:42 | 50.03782 | 8.54835 | 340 ft | 23 kts | 249° |
| 2026-05-06 23:43 | 50.03723 | 8.54590 | 336 ft | 23 kts | 252° |
| 2026-05-06 23:43 | 50.03680 | 8.54407 | 335 ft | 14 kts | 249° |
| 2026-05-06 23:43 | 50.03643 | 8.54257 | 336 ft | 14 kts | 250° |
| 2026-05-06 23:43 | 50.03609 | 8.54111 | 338 ft | 14 kts | 250° |
| 2026-05-06 23:44 | 50.03571 | 8.53952 | 339 ft | 16 kts | 252° |
| 2026-05-06 23:44 | 50.03531 | 8.53781 | 340 ft | 17 kts | 248° |
| 2026-05-06 23:44 | 50.03491 | 8.53615 | 341 ft | 15 kts | 248° |
| 2026-05-06 23:44 | 50.03451 | 8.53450 | 339 ft | 17 kts | 249° |
| 2026-05-06 23:45 | 50.03404 | 8.53257 | 336 ft | 19 kts | 249° |
| 2026-05-06 23:45 | 50.03369 | 8.53106 | 334 ft | 13 kts | 250° |
| 2026-05-06 23:45 | 50.03337 | 8.52978 | 335 ft | 12 kts | 250° |
| 2026-05-06 23:45 | 50.03316 | 8.52878 | 335 ft | 6 kts | 266° |
| 2026-05-06 23:46 | 50.03343 | 8.52824 | 335 ft | 6 kts | 343° |
| 2026-05-06 23:46 | 50.03388 | 8.52819 | 336 ft | 7 kts | 354° |
| 2026-05-06 23:46 | 50.03433 | 8.52762 | 337 ft | 10 kts | 283° |
| 2026-05-06 23:46 | 50.03415 | 8.52651 | 337 ft | 11 kts | 245° |
| 2026-05-06 23:47 | 50.03341 | 8.52594 | 335 ft | 18 kts | 183° |
| 2026-05-06 23:47 | 50.02985 | 8.52593 | 328 ft | 86 kts | 179° |
| 2026-05-06 23:47 | 50.02154 | 8.52603 | 325 ft | 146 kts | 179° |
| 2026-05-06 23:47 | 50.00998 | 8.52600 | 513 ft | 174 kts | 187° |
| 2026-05-06 23:48 | 49.99773 | 8.52585 | 972 ft | 182 kts | 180° |
| 2026-05-06 23:48 | 49.98423 | 8.52684 | 1122 ft | 204 kts | 179° |
| 2026-05-06 23:48 | 49.96967 | 8.52795 | 1465 ft | 214 kts | 179° |
| 2026-05-06 23:48 | 49.95449 | 8.52908 | 1930 ft | 219 kts | 180° |
| 2026-05-06 23:49 | 49.93914 | 8.53023 | 2367 ft | 224 kts | 180° |
| 2026-05-06 23:49 | 49.92323 | 8.53197 | 2800 ft | 229 kts | 180° |
| 2026-05-06 23:49 | 49.90720 | 8.53356 | 3263 ft | 236 kts | 181° |
| 2026-05-06 23:49 | 49.89074 | 8.53491 | 3931 ft | 239 kts | 181° |
| 2026-05-06 23:50 | 49.87452 | 8.53601 | 4815 ft | 234 kts | 181° |
| 2026-05-06 23:50 | 49.84224 | 8.53846 | 6396 ft | 231 kts | 180° |
| 2026-05-06 23:50 | 49.82607 | 8.53996 | 6989 ft | 238 kts | 182° |
| 2026-05-06 23:51 | 49.80931 | 8.54065 | 7711 ft | 239 kts | 182° |
| 2026-05-06 23:51 | 49.79321 | 8.54472 | 8465 ft | 243 kts | 159° |
| 2026-05-06 23:51 | 49.78000 | 8.56198 | 8967 ft | 263 kts | 126° |
| 2026-05-06 23:51 | 49.77421 | 8.59026 | 9169 ft | 294 kts | 92° |
| 2026-05-06 23:52 | 49.77513 | 8.62261 | 9695 ft | 304 kts | 90° |
| 2026-05-06 23:52 | 49.77558 | 8.65542 | 10187 ft | 316 kts | 93° |
| 2026-05-06 23:52 | 49.77531 | 8.69120 | 10270 ft | 343 kts | 94° |
| 2026-05-06 23:52 | 49.77455 | 8.72885 | 10673 ft | 357 kts | 95° |
| 2026-05-06 23:53 | 49.77352 | 8.76748 | 11383 ft | 361 kts | 95° |
| 2026-05-06 23:53 | 49.77232 | 8.80628 | 12131 ft | 364 kts | 96° |
| 2026-05-06 23:53 | 49.77103 | 8.84526 | 12878 ft | 367 kts | 96° |
| 2026-05-06 23:53 | 49.76966 | 8.88489 | 13619 ft | 370 kts | 96° |
| 2026-05-06 23:54 | 49.76825 | 8.92464 | 14363 ft | 372 kts | 96° |
| 2026-05-06 23:54 | 49.76680 | 8.96492 | 15079 ft | 376 kts | 96° |
| 2026-05-06 23:54 | 49.76531 | 9.00548 | 15772 ft | 380 kts | 96° |
| 2026-05-06 23:54 | 49.76381 | 9.04626 | 16458 ft | 384 kts | 96° |
| 2026-05-06 23:55 | 49.76223 | 9.08777 | 17138 ft | 387 kts | 96° |
| 2026-05-06 23:55 | 49.75870 | 9.12888 | 17784 ft | 387 kts | 108° |
| 2026-05-06 23:55 | 49.75113 | 9.16853 | 18408 ft | 390 kts | 109° |
| 2026-05-06 23:55 | 49.74372 | 9.20898 | 19031 ft | 394 kts | 108° |
| 2026-05-06 23:56 | 49.73669 | 9.24990 | 19634 ft | 399 kts | 107° |
| 2026-05-06 23:56 | 49.72974 | 9.29169 | 20218 ft | 404 kts | 107° |
| 2026-05-06 23:56 | 49.72279 | 9.33396 | 20781 ft | 408 kts | 107° |
| 2026-05-06 23:56 | 49.71574 | 9.37714 | 21346 ft | 413 kts | 107° |
| 2026-05-06 23:57 | 49.70866 | 9.42046 | 21894 ft | 417 kts | 107° |
| 2026-05-06 23:57 | 49.70152 | 9.46414 | 22476 ft | 421 kts | 107° |
| 2026-05-06 23:57 | 49.69422 | 9.50811 | 22681 ft | 424 kts | 107° |
| 2026-05-06 23:57 | 49.68687 | 9.55242 | 22791 ft | 426 kts | 107° |
| 2026-05-06 23:58 | 49.67960 | 9.59653 | 22805 ft | 425 kts | 107° |
| 2026-05-06 23:58 | 49.67231 | 9.64091 | 22789 ft | 423 kts | 106° |
| 2026-05-06 23:58 | 49.66811 | 9.68561 | 22731 ft | 426 kts | 90° |
| 2026-05-06 23:58 | 49.67403 | 9.73060 | 22780 ft | 430 kts | 71° |
| 2026-05-06 23:59 | 49.68436 | 9.77373 | 22773 ft | 432 kts | 72° |
| 2026-05-06 23:59 | 49.69371 | 9.81788 | 22791 ft | 430 kts | 75° |
| 2026-05-06 23:59 | 49.70210 | 9.86212 | 22782 ft | 429 kts | 76° |
| 2026-05-06 23:59 | 49.71012 | 9.90650 | 22783 ft | 429 kts | 76° |
| 2026-05-07 00:00 | 49.71867 | 9.95079 | 22770 ft | 429 kts | 69° |
| 2026-05-07 00:00 | 49.73408 | 9.99016 | 22816 ft | 430 kts | 52° |
| 2026-05-07 00:00 | 49.75270 | 10.02678 | 22786 ft | 431 kts | 53° |
| 2026-05-07 00:00 | 49.76497 | 10.05166 | 22791 ft | 431 kts | 54° |
| 2026-05-07 00:01 | 49.78846 | 10.10115 | 22782 ft | 432 kts | 54° |
| 2026-05-07 00:01 | 49.80615 | 10.13917 | 22783 ft | 434 kts | 54° |
| 2026-05-07 00:01 | 49.82368 | 10.17711 | 22781 ft | 434 kts | 54° |
| 2026-05-07 00:01 | 49.84123 | 10.21516 | 22763 ft | 436 kts | 54° |
| 2026-05-07 00:02 | 49.85885 | 10.25349 | 22770 ft | 433 kts | 54° |
| 2026-05-07 00:02 | 49.87620 | 10.29128 | 22769 ft | 429 kts | 54° |
| 2026-05-07 00:02 | 49.89352 | 10.32906 | 22772 ft | 427 kts | 54° |
| 2026-05-07 00:02 | 49.91064 | 10.36646 | 22790 ft | 431 kts | 54° |
| 2026-05-07 00:03 | 49.92845 | 10.40546 | 22774 ft | 436 kts | 54° |
| 2026-05-07 00:03 | 49.94570 | 10.44326 | 22817 ft | 422 kts | 54° |
| 2026-05-07 00:03 | 49.96263 | 10.48039 | 22763 ft | 426 kts | 54° |
| 2026-05-07 00:03 | 49.97969 | 10.51786 | 22775 ft | 425 kts | 54° |
| 2026-05-07 00:04 | 49.99691 | 10.55574 | 22782 ft | 426 kts | 54° |
| 2026-05-07 00:04 | 50.01397 | 10.59334 | 22781 ft | 426 kts | 54° |
| 2026-05-07 00:04 | 50.03097 | 10.63085 | 22780 ft | 426 kts | 54° |
| 2026-05-07 00:04 | 50.04802 | 10.66853 | 22763 ft | 426 kts | 55° |
| 2026-05-07 00:05 | 50.06517 | 10.70659 | 22778 ft | 425 kts | 55° |
| 2026-05-07 00:05 | 50.08282 | 10.74330 | 22772 ft | 426 kts | 50° |
| 2026-05-07 00:05 | 50.10274 | 10.77806 | 22776 ft | 426 kts | 48° |
| 2026-05-07 00:05 | 50.12263 | 10.81203 | 22759 ft | 426 kts | 48° |
| 2026-05-07 00:06 | 50.14251 | 10.84626 | 22774 ft | 427 kts | 48° |
| 2026-05-07 00:06 | 50.16246 | 10.88085 | 22779 ft | 426 kts | 48° |
| 2026-05-07 00:06 | 50.18225 | 10.91532 | 22777 ft | 426 kts | 48° |
| 2026-05-07 00:06 | 50.19547 | 10.93838 | 22776 ft | 426 kts | 48° |
| 2026-05-07 00:07 | 50.22178 | 10.98442 | 22773 ft | 426 kts | 48° |
| 2026-05-07 00:07 | 50.24162 | 11.01916 | 22770 ft | 426 kts | 48° |
| 2026-05-07 00:07 | 50.26135 | 11.05372 | 22767 ft | 427 kts | 48° |
| 2026-05-07 00:07 | 50.28116 | 11.08845 | 22775 ft | 426 kts | 48° |
| 2026-05-07 00:08 | 50.30085 | 11.12301 | 22771 ft | 427 kts | 48° |
| 2026-05-07 00:08 | 50.32066 | 11.15785 | 22741 ft | 428 kts | 48° |
| 2026-05-07 00:08 | 50.34060 | 11.19294 | 22738 ft | 425 kts | 49° |
| 2026-05-07 00:08 | 50.36198 | 11.22510 | 22729 ft | 427 kts | 33° |
| 2026-05-07 00:09 | 50.38855 | 11.24412 | 22756 ft | 425 kts | 12° |
| 2026-05-07 00:09 | 50.41792 | 11.24728 | 22686 ft | 419 kts | 352° |
| 2026-05-07 00:09 | 50.44672 | 11.24129 | 22426 ft | 414 kts | 349° |
| 2026-05-07 00:09 | 50.47553 | 11.23551 | 22153 ft | 412 kts | 351° |
| 2026-05-07 00:10 | 50.50367 | 11.23089 | 21873 ft | 409 kts | 352° |
| 2026-05-07 00:10 | 50.53210 | 11.22611 | 21615 ft | 410 kts | 351° |
| 2026-05-07 00:10 | 50.56037 | 11.22122 | 21355 ft | 410 kts | 351° |
| 2026-05-07 00:10 | 50.58906 | 11.21618 | 21083 ft | 410 kts | 351° |
| 2026-05-07 00:11 | 50.61719 | 11.21121 | 20829 ft | 411 kts | 351° |
| 2026-05-07 00:11 | 50.64585 | 11.21129 | 20699 ft | 414 kts | 10° |
| 2026-05-07 00:11 | 50.67282 | 11.22822 | 20728 ft | 419 kts | 29° |
| 2026-05-07 00:11 | 50.69833 | 11.25096 | 20732 ft | 421 kts | 27° |
| 2026-05-07 00:12 | 50.72420 | 11.27198 | 20754 ft | 420 kts | 25° |
| 2026-05-07 00:12 | 50.75076 | 11.29222 | 20740 ft | 420 kts | 24° |
| 2026-05-07 00:12 | 50.77703 | 11.31171 | 20739 ft | 420 kts | 24° |
| 2026-05-07 00:12 | 50.80354 | 11.33121 | 20733 ft | 420 kts | 24° |
| 2026-05-07 00:13 | 50.83019 | 11.35076 | 20739 ft | 420 kts | 24° |
| 2026-05-07 00:13 | 50.85683 | 11.37030 | 20740 ft | 420 kts | 24° |
| 2026-05-07 00:13 | 50.88335 | 11.38975 | 20736 ft | 420 kts | 24° |
| 2026-05-07 00:13 | 50.91001 | 11.40934 | 20727 ft | 420 kts | 24° |
| 2026-05-07 00:14 | 50.93650 | 11.42883 | 20725 ft | 420 kts | 24° |
| 2026-05-07 00:14 | 50.96320 | 11.44848 | 20727 ft | 421 kts | 24° |
| 2026-05-07 00:14 | 50.98968 | 11.46801 | 20729 ft | 420 kts | 24° |
| 2026-05-07 00:14 | 51.01626 | 11.48763 | 20728 ft | 421 kts | 23° |
| 2026-05-07 00:15 | 51.04275 | 11.50721 | 20731 ft | 420 kts | 24° |
| 2026-05-07 00:15 | 51.06947 | 11.52699 | 20724 ft | 420 kts | 23° |
| 2026-05-07 00:15 | 51.09587 | 11.54700 | 20719 ft | 421 kts | 28° |
| 2026-05-07 00:15 | 51.11844 | 11.57623 | 20696 ft | 422 kts | 51° |
| 2026-05-07 00:16 | 51.13221 | 11.61709 | 20738 ft | 418 kts | 75° |
| 2026-05-07 00:16 | 51.13493 | 11.66314 | 20726 ft | 414 kts | 100° |
| 2026-05-07 00:16 | 51.12907 | 11.70752 | 20718 ft | 412 kts | 103° |
| 2026-05-07 00:16 | 51.12590 | 11.75324 | 20734 ft | 415 kts | 95° |
| 2026-05-07 00:17 | 51.12588 | 11.79903 | 20718 ft | 417 kts | 90° |
| 2026-05-07 00:17 | 51.12729 | 11.84584 | 20720 ft | 419 kts | 89° |
| 2026-05-07 00:17 | 51.12922 | 11.89147 | 20727 ft | 418 kts | 88° |
| 2026-05-07 00:17 | 51.13139 | 11.93769 | 20729 ft | 418 kts | 88° |
| 2026-05-07 00:18 | 51.13359 | 11.98359 | 20728 ft | 418 kts | 88° |
| 2026-05-07 00:18 | 51.13583 | 12.02961 | 20726 ft | 418 kts | 88° |
| 2026-05-07 00:18 | 51.13805 | 12.07569 | 20722 ft | 418 kts | 88° |
| 2026-05-07 00:18 | 51.14027 | 12.12182 | 20732 ft | 418 kts | 88° |
| 2026-05-07 00:19 | 51.14248 | 12.16789 | 20743 ft | 417 kts | 88° |
| 2026-05-07 00:19 | 51.14469 | 12.21402 | 20702 ft | 415 kts | 87° |
| 2026-05-07 00:19 | 51.14685 | 12.25956 | 20193 ft | 408 kts | 87° |
| 2026-05-07 00:19 | 51.14894 | 12.30459 | 19487 ft | 404 kts | 87° |
| 2026-05-07 00:20 | 51.15097 | 12.34896 | 18859 ft | 404 kts | 87° |
| 2026-05-07 00:20 | 51.15299 | 12.39326 | 18288 ft | 399 kts | 87° |
| 2026-05-07 00:20 | 51.15817 | 12.43678 | 17734 ft | 396 kts | 68° |
| 2026-05-07 00:20 | 51.17260 | 12.47297 | 17262 ft | 389 kts | 44° |
| 2026-05-07 00:21 | 51.19466 | 12.49747 | 16649 ft | 390 kts | 21° |
| 2026-05-07 00:21 | 51.22116 | 12.50694 | 15726 ft | 391 kts | 356° |
| 2026-05-07 00:21 | 51.24708 | 12.49901 | 15038 ft | 378 kts | 332° |
| 2026-05-07 00:21 | 51.26824 | 12.47546 | 14506 ft | 359 kts | 307° |
| 2026-05-07 00:22 | 51.28064 | 12.44237 | 14240 ft | 338 kts | 287° |
| 2026-05-07 00:22 | 51.28541 | 12.40652 | 14048 ft | 332 kts | 269° |
| 2026-05-07 00:22 | 51.28240 | 12.36966 | 13884 ft | 335 kts | 250° |
| 2026-05-07 00:22 | 51.27259 | 12.33704 | 13635 ft | 321 kts | 241° |
| 2026-05-07 00:23 | 51.26182 | 12.30523 | 12811 ft | 326 kts | 242° |
| 2026-05-07 00:23 | 51.25290 | 12.27200 | 12077 ft | 328 kts | 257° |
| 2026-05-07 00:23 | 51.25237 | 12.23600 | 11528 ft | 324 kts | 278° |
| 2026-05-07 00:23 | 51.25764 | 12.20151 | 11087 ft | 314 kts | 282° |
| 2026-05-07 00:24 | 51.26299 | 12.16820 | 10681 ft | 303 kts | 282° |
| 2026-05-07 00:24 | 51.26814 | 12.13601 | 10280 ft | 293 kts | 281° |
| 2026-05-07 00:24 | 51.27308 | 12.10517 | 9902 ft | 285 kts | 281° |
| 2026-05-07 00:24 | 51.27791 | 12.07503 | 9725 ft | 269 kts | 281° |
| 2026-05-07 00:25 | 51.28249 | 12.04641 | 9709 ft | 267 kts | 281° |
| 2026-05-07 00:25 | 51.28598 | 12.01716 | 9711 ft | 265 kts | 266° |
| 2026-05-07 00:25 | 51.28481 | 11.98821 | 9560 ft | 256 kts | 263° |
| 2026-05-07 00:25 | 51.28336 | 11.96008 | 9264 ft | 253 kts | 263° |
| 2026-05-07 00:26 | 51.28182 | 11.93177 | 8981 ft | 259 kts | 263° |
| 2026-05-07 00:26 | 51.28018 | 11.90115 | 8556 ft | 298 kts | 264° |
| 2026-05-07 00:26 | 51.27840 | 11.86516 | 7415 ft | 352 kts | 264° |
| 2026-05-07 00:26 | 51.27837 | 11.86462 | 7399 ft | 353 kts | 264° |
| 2026-05-07 00:27 | 51.27777 | 11.85246 | 7049 ft | 365 kts | 265° |
| 2026-05-07 00:27 | 51.27579 | 11.81146 | 6866 ft | 374 kts | 265° |
| 2026-05-07 00:27 | 51.27374 | 11.77036 | 6650 ft | 361 kts | 264° |
| 2026-05-07 00:27 | 51.27337 | 11.73103 | 6393 ft | 342 kts | 278° |
| 2026-05-07 00:28 | 51.28173 | 11.69650 | 5933 ft | 329 kts | 306° |
| 2026-05-07 00:28 | 51.29858 | 11.67520 | 5758 ft | 296 kts | 337° |
| 2026-05-07 00:28 | 51.31764 | 11.67209 | 5707 ft | 262 kts | 8° |
| 2026-05-07 00:28 | 51.33452 | 11.67599 | 5715 ft | 233 kts | 2° |
| 2026-05-07 00:29 | 51.35088 | 11.67753 | 5764 ft | 234 kts | 360° |
| 2026-05-07 00:29 | 51.36693 | 11.68311 | 5535 ft | 235 kts | 26° |
| 2026-05-07 00:30 | 51.38991 | 11.74656 | 3804 ft | 217 kts | 89° |
| 2026-05-07 00:30 | 51.39075 | 11.77006 | 3598 ft | 208 kts | 88° |
| 2026-05-07 00:30 | 51.39166 | 11.79357 | 3642 ft | 214 kts | 88° |
| 2026-05-07 00:30 | 51.39263 | 11.81740 | 3282 ft | 215 kts | 87° |
| 2026-05-07 00:31 | 51.39373 | 11.84117 | 2826 ft | 208 kts | 87° |
| 2026-05-07 00:31 | 51.39501 | 11.86480 | 2724 ft | 224 kts | 86° |
| 2026-05-07 00:31 | 51.39634 | 11.89002 | 2690 ft | 228 kts | 87° |
| 2026-05-07 00:31 | 51.39745 | 11.91543 | 2706 ft | 225 kts | 88° |
| 2026-05-07 00:32 | 51.39847 | 11.94117 | 2709 ft | 231 kts | 86° |
| 2026-05-07 00:32 | 51.39983 | 11.96704 | 2735 ft | 232 kts | 86° |
| 2026-05-07 00:32 | 51.40124 | 11.99268 | 2731 ft | 233 kts | 86° |
| 2026-05-07 00:32 | 51.40264 | 12.01854 | 2621 ft | 232 kts | 86° |
| 2026-05-07 00:33 | 51.40403 | 12.04431 | 2275 ft | 226 kts | 87° |
| 2026-05-07 00:33 | 51.40523 | 12.06860 | 1880 ft | 214 kts | 87° |
| 2026-05-07 00:33 | 51.40612 | 12.09188 | 1596 ft | 194 kts | 87° |
| 2026-05-07 00:33 | 51.40720 | 12.11220 | 1322 ft | 176 kts | 86° |
| 2026-05-07 00:34 | 51.40802 | 12.13111 | 941 ft | 166 kts | 86° |
| 2026-05-07 00:34 | 51.40892 | 12.14815 | 887 ft | 141 kts | 84° |
| 2026-05-07 00:34 | 51.40980 | 12.16402 | 858 ft | 142 kts | 85° |
| 2026-05-07 00:34 | 51.41046 | 12.18019 | 745 ft | 144 kts | 85° |
| 2026-05-07 00:35 | 51.41118 | 12.19596 | 590 ft | 145 kts | 84° |
| 2026-05-07 00:35 | 51.41193 | 12.21186 | 435 ft | 133 kts | 84° |
| 2026-05-07 00:35 | 51.41256 | 12.22463 | 459 ft | 91 kts | 85° |
| 2026-05-07 00:35 | 51.41285 | 12.23100 | 464 ft | 17 kts | 85° |
| 2026-05-07 00:36 | 51.41317 | 12.23233 | 463 ft | 12 kts | 21° |
| 2026-05-07 00:36 | 51.41398 | 12.23239 | 462 ft | 12 kts | 3° |
| 2026-05-07 00:36 | 51.41489 | 12.23235 | 460 ft | 13 kts | 356° |
| 2026-05-07 00:36 | 51.41562 | 12.23226 | 458 ft | 10 kts | 355° |
| 2026-05-07 00:37 | 51.41602 | 12.23262 | 456 ft | 7 kts | 85° |
| 2026-05-07 00:37 | 51.41604 | 12.23360 | 456 ft | 10 kts | 88° |
| 2026-05-07 00:37 | 51.41607 | 12.23488 | 455 ft | 11 kts | 85° |
| 2026-05-07 00:37 | 51.41614 | 12.23627 | 455 ft | 13 kts | 85° |
| 2026-05-07 00:38 | 51.41621 | 12.23779 | 454 ft | 14 kts | 85° |
| 2026-05-07 00:38 | 51.41628 | 12.23944 | 454 ft | 15 kts | 86° |
| 2026-05-07 00:38 | 51.41636 | 12.24124 | 454 ft | 16 kts | 84° |
| 2026-05-07 00:38 | 51.41646 | 12.24312 | 454 ft | 17 kts | 85° |
| 2026-05-07 00:39 | 51.41652 | 12.24483 | 454 ft | 8 kts | 86° |
| 2026-05-07 00:39 | 51.41668 | 12.24582 | 454 ft | 9 kts | 50° |
| 2026-05-07 00:39 | 51.41739 | 12.24627 | 453 ft | 13 kts | 13° |
| 2026-05-07 00:39 | 51.41835 | 12.24664 | 454 ft | 14 kts | 13° |
| 2026-05-07 00:40 | 51.41938 | 12.24703 | 452 ft | 16 kts | 13° |
| 2026-05-07 00:40 | 51.42050 | 12.24746 | 451 ft | 16 kts | 14° |
| 2026-05-07 00:40 | 51.42163 | 12.24789 | 450 ft | 17 kts | 13° |
| 2026-05-07 00:40 | 51.42295 | 12.24841 | 445 ft | 20 kts | 13° |
| 2026-05-07 00:41 | 51.42430 | 12.24892 | 443 ft | 17 kts | 12° |
| 2026-05-07 00:41 | 51.42516 | 12.24924 | 440 ft | 23 kts | 12° |
| 2026-05-07 00:41 | 51.42728 | 12.25005 | 436 ft | 31 kts | 9° |
| 2026-05-07 00:41 | 51.42904 | 12.25073 | 434 ft | 12 kts | 14° |
| 2026-05-07 00:42 | 51.42973 | 12.25139 | 434 ft | 10 kts | 62° |
| 2026-05-07 00:42 | 51.42968 | 12.25240 | 434 ft | 8 kts | 129° |
| 2026-05-07 00:42 | 51.42889 | 12.25246 | 434 ft | 23 kts | 192° |
| 2026-05-07 00:42 | 51.42694 | 12.25170 | 437 ft | 35 kts | 193° |
| 2026-05-07 00:43 | 51.42458 | 12.25081 | 442 ft | 33 kts | 194° |
| 2026-05-07 00:43 | 51.42216 | 12.24988 | 451 ft | 40 kts | 195° |
| 2026-05-07 00:43 | 51.41950 | 12.24886 | 456 ft | 37 kts | 192° |
| 2026-05-07 00:43 | 51.41739 | 12.24806 | 456 ft | 16 kts | 193° |
| 2026-05-07 00:44 | 51.41676 | 12.24763 | 456 ft | 9 kts | 234° |
| 2026-05-07 00:44 | 51.41661 | 12.24642 | 454 ft | 13 kts | 265° |
| 2026-05-07 00:44 | 51.41642 | 12.24326 | 454 ft | 45 kts | 267° |
| 2026-05-07 00:44 | 51.41623 | 12.23830 | 454 ft | 43 kts | 265° |
| 2026-05-07 00:45 | 51.41600 | 12.23362 | 456 ft | 40 kts | 264° |
| 2026-05-07 00:45 | 51.41646 | 12.22948 | 454 ft | 22 kts | 285° |
| 2026-05-07 00:45 | 51.41688 | 12.22715 | 451 ft | 22 kts | 283° |
| 2026-05-07 00:45 | 51.41732 | 12.22455 | 448 ft | 26 kts | 285° |
| 2026-05-07 00:46 | 51.41779 | 12.22180 | 441 ft | 25 kts | 285° |
| 2026-05-07 00:46 | 51.41817 | 12.21951 | 432 ft | 8 kts | 285° |
| 2026-05-07 00:46 | 51.41854 | 12.21917 | 430 ft | 7 kts | 21° |
| 2026-05-07 00:46 | 51.41892 | 12.21942 | 430 ft | 4 kts | 16° |
| 2026-05-07 00:47 | 51.41917 | 12.21953 | 430 ft | 1 kts | 15° |